Terminal Aerodrome Forecast
Issued by NWS

Home | Current Version | Previous Version | Graphics & Text | Print | Product List | Glossary On
Versions: 1 2 3 4 5 6 7 8 9 10 11 12 13 14 15 16
000
FTUS43 KICT 030150 AAA
TAFSLN
TAF AMD
KSLN 030150Z 0302/0324 27008KT P6SM VCTS BKN100CB
      TEMPO 0302/0303 -TSRA
     FM030300 27010KT P6SM BKN100
     FM030600 VRB03KT P6SM SCT250=

USA.gov is the U.S. government's official web portal to all federal, state and local government web resources and services.